sensor_id;sensor_type;location;lat;lon;timestamp;P1;P2;P0
12542;PMS3003;6337;49.556;25.594;2023-01-28T02:06:23;23.67;11.57;
12542;PMS3003;6337;49.556;25.594;2023-01-28T02:08:52;29.33;10.98;
12542;PMS3003;6337;49.556;25.594;2023-01-28T02:11:20;20.48;12.20;
12542;PMS3003;6337;49.556;25.594;2023-01-28T02:13:48;21.83;11.05;
12542;PMS3003;6337;49.556;25.594;2023-01-28T02:16:18;28.20;10.77;
12542;PMS3003;6337;49.556;25.594;2023-01-28T02:18:47;19.80;10.68;
12542;PMS3003;6337;49.556;25.594;2023-01-28T02:26:54;23.65;10.88;
12542;PMS3003;6337;49.556;25.594;2023-01-28T02:29:28;29.50;12.13;
12542;PMS3003;6337;49.556;25.594;2023-01-28T02:31:59;22.98;11.57;
12542;PMS3003;6337;49.556;25.594;2023-01-28T02:34:33;18.10;8.93;
12542;PMS3003;6337;49.556;25.594;2023-01-28T02:37:04;19.88;10.75;
12542;PMS3003;6337;49.556;25.594;2023-01-28T02:39:39;25.38;12.80;
12542;PMS3003;6337;49.556;25.594;2023-01-28T02:42:10;16.40;8.82;
12542;PMS3003;6337;49.556;25.594;2023-01-28T02:44:43;17.02;11.65;
12542;PMS3003;6337;49.556;25.594;2023-01-28T02:47:11;19.00;9.75;
12542;PMS3003;6337;49.556;25.594;2023-01-28T02:49:58;29.40;12.48;
12542;PMS3003;6337;49.556;25.594;2023-01-28T02:52:33;22.38;10.40;
12542;PMS3003;6337;49.556;25.594;2023-01-28T02:55:20;32.13;12.48;
12542;PMS3003;6337;49.556;25.594;2023-01-28T02:57:56;17.67;10.18;
12542;PMS3003;6337;49.556;25.594;2023-01-28T03:00:26;22.02;11.00;
12542;PMS3003;6337;49.556;25.594;2023-01-28T03:02:57;28.80;12.60;
12542;PMS3003;6337;49.556;25.594;2023-01-28T03:05:27;27.65;11.65;
12542;PMS3003;6337;49.556;25.594;2023-01-28T03:07:59;24.48;11.52;
12542;PMS3003;6337;49.556;25.594;2023-01-28T03:10:48;27.60;12.20;
12542;PMS3003;6337;49.556;25.594;2023-01-28T03:13:32;23.63;11.02;
12542;PMS3003;6337;49.556;25.594;2023-01-28T03:16:19;27.10;12.25;
12542;PMS3003;6337;49.556;25.594;2023-01-28T03:19:05;22.58;9.57;
12542;PMS3003;6337;49.556;25.594;2023-01-28T03:21:50;19.15;9.88;
12542;PMS3003;6337;49.556;25.594;2023-01-28T03:24:36;21.70;10.02;
12542;PMS3003;6337;49.556;25.594;2023-01-28T03:27:23;21.90;11.80;
12542;PMS3003;6337;49.556;25.594;2023-01-28T03:30:11;15.98;10.45;
12542;PMS3003;6337;49.556;25.594;2023-01-28T03:32:59;27.42;11.90;
12542;PMS3003;6337;49.556;25.594;2023-01-28T03:35:44;17.52;10.43;
12542;PMS3003;6337;49.556;25.594;2023-01-28T03:38:30;20.33;11.25;
12542;PMS3003;6337;49.556;25.594;2023-01-28T03:41:06;28.20;10.35;
12542;PMS3003;6337;49.556;25.594;2023-01-28T03:43:36;23.85;11.38;
12542;PMS3003;6337;49.556;25.594;2023-01-28T03:46:04;37.45;14.88;
12542;PMS3003;6337;49.556;25.594;2023-01-28T03:48:33;29.90;13.48;
12542;PMS3003;6337;49.556;25.594;2023-01-28T03:51:01;30.30;13.93;
12542;PMS3003;6337;49.556;25.594;2023-01-28T03:53:28;28.27;15.10;
12542;PMS3003;6337;49.556;25.594;2023-01-28T03:55:55;25.77;14.05;
12542;PMS3003;6337;49.556;25.594;2023-01-28T03:58:23;28.95;12.75;
12542;PMS3003;6337;49.556;25.594;2023-01-28T04:01:10;27.05;11.25;
12542;PMS3003;6337;49.556;25.594;2023-01-28T04:03:39;21.55;11.38;
12542;PMS3003;6337;49.556;25.594;2023-01-28T04:06:07;24.13;11.55;
12542;PMS3003;6337;49.556;25.594;2023-01-28T04:08:34;15.35;9.18;
12542;PMS3003;6337;49.556;25.594;2023-01-28T04:11:02;15.75;9.65;
12542;PMS3003;6337;49.556;25.594;2023-01-28T04:13:40;30.42;12.38;
12542;PMS3003;6337;49.556;25.594;2023-01-28T04:16:08;23.33;10.95;
12542;PMS3003;6337;49.556;25.594;2023-01-28T07:06:28;31.48;13.50;
12542;PMS3003;6337;49.556;25.594;2023-01-28T07:08:55;31.30;13.50;
12542;PMS3003;6337;49.556;25.594;2023-01-28T07:11:24;32.42;16.92;
12542;PMS3003;6337;49.556;25.594;2023-01-28T07:13:52;24.35;12.68;
12542;PMS3003;6337;49.556;25.594;2023-01-28T07:16:19;35.15;18.50;
12542;PMS3003;6337;49.556;25.594;2023-01-28T07:18:47;33.17;15.32;
12542;PMS3003;6337;49.556;25.594;2023-01-28T07:21:15;31.05;13.70;
12542;PMS3003;6337;49.556;25.594;2023-01-28T07:23:44;34.63;15.07;
12542;PMS3003;6337;49.556;25.594;2023-01-28T07:26:11;40.63;14.98;
12542;PMS3003;6337;49.556;25.594;2023-01-28T07:28:39;30.27;13.57;
12542;PMS3003;6337;49.556;25.594;2023-01-28T07:31:07;27.10;12.70;
12542;PMS3003;6337;49.556;25.594;2023-01-28T07:33:34;35.78;13.80;
12542;PMS3003;6337;49.556;25.594;2023-01-28T07:36:02;35.90;16.55;
12542;PMS3003;6337;49.556;25.594;2023-01-28T07:38:29;32.35;14.15;
12542;PMS3003;6337;49.556;25.594;2023-01-28T07:40:59;26.67;13.48;
12542;PMS3003;6337;49.556;25.594;2023-01-28T07:43:27;35.00;18.58;
12542;PMS3003;6337;49.556;25.594;2023-01-28T07:45:54;38.90;17.20;
12542;PMS3003;6337;49.556;25.594;2023-01-28T07:48:21;38.22;17.73;
12542;PMS3003;6337;49.556;25.594;2023-01-28T07:50:49;39.15;16.58;
12542;PMS3003;6337;49.556;25.594;2023-01-28T07:53:16;36.95;15.77;
12542;PMS3003;6337;49.556;25.594;2023-01-28T07:55:44;34.28;14.43;
12542;PMS3003;6337;49.556;25.594;2023-01-28T07:58:13;29.83;14.43;
12542;PMS3003;6337;49.556;25.594;2023-01-28T08:00:41;31.70;16.52;
12542;PMS3003;6337;49.556;25.594;2023-01-28T08:03:10;37.50;16.23;
12542;PMS3003;6337;49.556;25.594;2023-01-28T08:05:40;30.08;13.98;
12542;PMS3003;6337;49.556;25.594;2023-01-28T08:08:08;42.90;15.77;
12542;PMS3003;6337;49.556;25.594;2023-01-28T08:10:36;27.13;15.48;
12542;PMS3003;6337;49.556;25.594;2023-01-28T08:13:04;33.03;15.75;
12542;PMS3003;6337;49.556;25.594;2023-01-28T08:15:34;28.75;15.18;
12542;PMS3003;6337;49.556;25.594;2023-01-28T08:18:03;33.95;16.30;
12542;PMS3003;6337;49.556;25.594;2023-01-28T08:20:31;34.25;16.13;
12542;PMS3003;6337;49.556;25.594;2023-01-28T08:23:05;31.45;15.95;
12542;PMS3003;6337;49.556;25.594;2023-01-28T08:25:33;34.67;15.50;
12542;PMS3003;6337;49.556;25.594;2023-01-28T08:28:00;42.05;18.33;
12542;PMS3003;6337;49.556;25.594;2023-01-28T08:30:28;29.40;16.27;
12542;PMS3003;6337;49.556;25.594;2023-01-28T08:32:58;28.77;15.30;
12542;PMS3003;6337;49.556;25.594;2023-01-28T08:35:26;29.50;14.50;
12542;PMS3003;6337;49.556;25.594;2023-01-28T08:37:54;30.48;13.93;
12542;PMS3003;6337;49.556;25.594;2023-01-28T08:40:22;38.75;15.95;
12542;PMS3003;6337;49.556;25.594;2023-01-28T08:42:53;30.80;15.23;
12542;PMS3003;6337;49.556;25.594;2023-01-28T08:45:24;34.50;16.25;
12542;PMS3003;6337;49.556;25.594;2023-01-28T08:47:53;30.10;15.02;
12542;PMS3003;6337;49.556;25.594;2023-01-28T08:50:27;28.02;15.45;
12542;PMS3003;6337;49.556;25.594;2023-01-28T08:53:01;36.78;19.13;
12542;PMS3003;6337;49.556;25.594;2023-01-28T08:55:29;41.75;18.40;
12542;PMS3003;6337;49.556;25.594;2023-01-28T08:57:57;32.92;13.80;
12542;PMS3003;6337;49.556;25.594;2023-01-28T09:00:29;31.33;15.50;
12542;PMS3003;6337;49.556;25.594;2023-01-28T09:02:57;27.05;15.38;
12542;PMS3003;6337;49.556;25.594;2023-01-28T09:05:27;26.77;14.43;
12542;PMS3003;6337;49.556;25.594;2023-01-28T09:07:59;29.98;13.45;
12542;PMS3003;6337;49.556;25.594;2023-01-28T09:10:28;32.05;15.48;
12542;PMS3003;6337;49.556;25.594;2023-01-28T09:13:03;28.48;15.55;
12542;PMS3003;6337;49.556;25.594;2023-01-28T09:15:31;27.52;12.85;
12542;PMS3003;6337;49.556;25.594;2023-01-28T09:17:59;25.95;15.23;
12542;PMS3003;6337;49.556;25.594;2023-01-28T09:20:28;31.55;14.75;
12542;PMS3003;6337;49.556;25.594;2023-01-28T09:22:57;30.25;13.18;
12542;PMS3003;6337;49.556;25.594;2023-01-28T09:25:25;36.88;12.75;
12542;PMS3003;6337;49.556;25.594;2023-01-28T09:27:53;23.85;13.82;
12542;PMS3003;6337;49.556;25.594;2023-01-28T09:30:20;31.15;14.90;
12542;PMS3003;6337;49.556;25.594;2023-01-28T09:32:49;25.55;12.63;
12542;PMS3003;6337;49.556;25.594;2023-01-28T09:35:17;20.45;11.27;
12542;PMS3003;6337;49.556;25.594;2023-01-28T09:37:46;21.80;13.02;
12542;PMS3003;6337;49.556;25.594;2023-01-28T09:40:19;20.77;12.10;
12542;PMS3003;6337;49.556;25.594;2023-01-28T09:42:54;30.85;13.90;
12542;PMS3003;6337;49.556;25.594;2023-01-28T09:45:27;23.85;13.32;
12542;PMS3003;6337;49.556;25.594;2023-01-28T09:47:57;24.80;12.07;
12542;PMS3003;6337;49.556;25.594;2023-01-28T09:50:31;29.85;11.65;
12542;PMS3003;6337;49.556;25.594;2023-01-28T09:53:02;33.63;15.05;
12542;PMS3003;6337;49.556;25.594;2023-01-28T09:55:32;28.30;13.23;
12542;PMS3003;6337;49.556;25.594;2023-01-28T09:58:00;36.10;14.90;
12542;PMS3003;6337;49.556;25.594;2023-01-28T10:00:29;20.27;11.18;
12542;PMS3003;6337;49.556;25.594;2023-01-28T10:05:49;21.40;12.18;
12542;PMS3003;6337;49.556;25.594;2023-01-28T10:08:31;24.35;13.05;
12542;PMS3003;6337;49.556;25.594;2023-01-28T10:11:03;33.28;13.15;
12542;PMS3003;6337;49.556;25.594;2023-01-28T10:13:37;35.35;13.68;
12542;PMS3003;6337;49.556;25.594;2023-01-28T10:16:08;35.53;14.40;
12542;PMS3003;6337;49.556;25.594;2023-01-28T10:18:40;26.27;13.27;
12542;PMS3003;6337;49.556;25.594;2023-01-28T10:21:11;21.33;10.77;
12542;PMS3003;6337;49.556;25.594;2023-01-28T10:23:54;20.80;10.38;
12542;PMS3003;6337;49.556;25.594;2023-01-28T10:26:24;22.45;10.63;
12542;PMS3003;6337;49.556;25.594;2023-01-28T10:28:54;20.75;10.95;
12542;PMS3003;6337;49.556;25.594;2023-01-28T10:31:22;20.92;11.23;
12542;PMS3003;6337;49.556;25.594;2023-01-28T10:33:51;21.15;10.60;
12542;PMS3003;6337;49.556;25.594;2023-01-28T10:36:18;23.00;12.15;
12542;PMS3003;6337;49.556;25.594;2023-01-28T10:38:52;26.75;12.45;
12542;PMS3003;6337;49.556;25.594;2023-01-28T10:41:20;30.75;12.30;
12542;PMS3003;6337;49.556;25.594;2023-01-28T10:43:50;29.50;12.50;
12542;PMS3003;6337;49.556;25.594;2023-01-28T10:46:18;34.25;14.00;
12542;PMS3003;6337;49.556;25.594;2023-01-28T10:48:47;18.83;10.50;
12542;PMS3003;6337;49.556;25.594;2023-01-28T10:51:29;20.88;11.68;
12542;PMS3003;6337;49.556;25.594;2023-01-28T10:54:00;31.13;11.75;
12542;PMS3003;6337;49.556;25.594;2023-01-28T10:56:29;27.80;12.60;
12542;PMS3003;6337;49.556;25.594;2023-01-28T10:58:59;40.47;12.85;
12542;PMS3003;6337;49.556;25.594;2023-01-28T11:01:37;28.50;12.85;
12542;PMS3003;6337;49.556;25.594;2023-01-28T11:04:05;23.88;10.32;
12542;PMS3003;6337;49.556;25.594;2023-01-28T11:06:33;35.58;11.60;
12542;PMS3003;6337;49.556;25.594;2023-01-28T11:09:21;23.90;10.40;
12542;PMS3003;6337;49.556;25.594;2023-01-28T11:11:55;26.52;10.45;
12542;PMS3003;6337;49.556;25.594;2023-01-28T11:14:25;19.42;11.07;
12542;PMS3003;6337;49.556;25.594;2023-01-28T11:16:55;53.53;13.77;
12542;PMS3003;6337;49.556;25.594;2023-01-28T11:19:27;24.65;12.23;
12542;PMS3003;6337;49.556;25.594;2023-01-28T11:21:55;25.88;12.70;
12542;PMS3003;6337;49.556;25.594;2023-01-28T11:24:29;29.70;14.40;
12542;PMS3003;6337;49.556;25.594;2023-01-28T11:26:58;20.27;12.02;
12542;PMS3003;6337;49.556;25.594;2023-01-28T11:29:29;31.13;12.05;
12542;PMS3003;6337;49.556;25.594;2023-01-28T11:32:00;29.27;15.05;
12542;PMS3003;6337;49.556;25.594;2023-01-28T11:34:29;34.03;12.55;
12542;PMS3003;6337;49.556;25.594;2023-01-28T11:37:00;28.67;13.50;
12542;PMS3003;6337;49.556;25.594;2023-01-28T11:39:32;27.08;13.88;
12542;PMS3003;6337;49.556;25.594;2023-01-28T11:42:10;32.83;13.25;
12542;PMS3003;6337;49.556;25.594;2023-01-28T11:44:38;27.17;13.15;
12542;PMS3003;6337;49.556;25.594;2023-01-28T11:47:11;23.70;11.25;
12542;PMS3003;6337;49.556;25.594;2023-01-28T11:49:43;27.20;11.15;
12542;PMS3003;6337;49.556;25.594;2023-01-28T11:52:17;23.70;11.55;
12542;PMS3003;6337;49.556;25.594;2023-01-28T11:54:53;30.38;14.68;
12542;PMS3003;6337;49.556;25.594;2023-01-28T11:57:24;36.17;15.40;
12542;PMS3003;6337;49.556;25.594;2023-01-28T12:00:03;24.27;13.98;
12542;PMS3003;6337;49.556;25.594;2023-01-28T12:02:41;25.52;12.48;
12542;PMS3003;6337;49.556;25.594;2023-01-28T12:05:19;20.17;11.25;
12542;PMS3003;6337;49.556;25.594;2023-01-28T12:07:53;29.83;12.30;
12542;PMS3003;6337;49.556;25.594;2023-01-28T12:10:26;19.23;12.05;
12542;PMS3003;6337;49.556;25.594;2023-01-28T12:13:09;28.05;12.95;
12542;PMS3003;6337;49.556;25.594;2023-01-28T12:15:57;36.78;16.25;
12542;PMS3003;6337;49.556;25.594;2023-01-28T12:18:35;26.67;14.02;
12542;PMS3003;6337;49.556;25.594;2023-01-28T12:21:11;33.75;14.00;
12542;PMS3003;6337;49.556;25.594;2023-01-28T12:23:53;27.67;14.57;
12542;PMS3003;6337;49.556;25.594;2023-01-28T12:26:32;26.15;11.52;
12542;PMS3003;6337;49.556;25.594;2023-01-28T12:29:07;33.42;14.43;
12542;PMS3003;6337;49.556;25.594;2023-01-28T12:31:50;28.13;15.23;
12542;PMS3003;6337;49.556;25.594;2023-01-28T12:34:46;25.85;12.45;
12542;PMS3003;6337;49.556;25.594;2023-01-28T12:37:19;21.88;11.30;
12542;PMS3003;6337;49.556;25.594;2023-01-28T12:39:52;16.05;8.80;
12542;PMS3003;6337;49.556;25.594;2023-01-28T12:42:29;17.92;10.32;
12542;PMS3003;6337;49.556;25.594;2023-01-28T12:45:04;23.70;10.23;
12542;PMS3003;6337;49.556;25.594;2023-01-28T12:47:39;20.95;11.95;
12542;PMS3003;6337;49.556;25.594;2023-01-28T12:50:16;14.27;8.43;
12542;PMS3003;6337;49.556;25.594;2023-01-28T12:52:48;14.85;8.55;
12542;PMS3003;6337;49.556;25.594;2023-01-28T12:55:17;16.60;8.80;
12542;PMS3003;6337;49.556;25.594;2023-01-28T16:06:00;23.17;12.07;
12542;PMS3003;6337;49.556;25.594;2023-01-28T16:08:31;19.77;11.13;
12542;PMS3003;6337;49.556;25.594;2023-01-28T16:11:00;21.75;9.85;
12542;PMS3003;6337;49.556;25.594;2023-01-28T16:13:32;19.02;11.45;
12542;PMS3003;6337;49.556;25.594;2023-01-28T16:16:02;17.92;10.18;
12542;PMS3003;6337;49.556;25.594;2023-01-28T16:18:36;22.42;10.55;
12542;PMS3003;6337;49.556;25.594;2023-01-28T16:21:11;21.92;11.98;
12542;PMS3003;6337;49.556;25.594;2023-01-28T16:23:49;16.23;10.05;
12542;PMS3003;6337;49.556;25.594;2023-01-28T16:26:31;20.17;10.45;
12542;PMS3003;6337;49.556;25.594;2023-01-28T16:29:11;20.65;11.27;
12542;PMS3003;6337;49.556;25.594;2023-01-28T16:31:41;17.13;10.20;
12542;PMS3003;6337;49.556;25.594;2023-01-28T16:34:09;22.70;11.90;
12542;PMS3003;6337;49.556;25.594;2023-01-28T16:39:27;22.70;12.15;
12542;PMS3003;6337;49.556;25.594;2023-01-28T16:41:55;19.08;10.35;
12542;PMS3003;6337;49.556;25.594;2023-01-28T16:44:29;19.55;11.07;
12542;PMS3003;6337;49.556;25.594;2023-01-28T16:46:56;23.00;12.70;
12542;PMS3003;6337;49.556;25.594;2023-01-28T16:49:24;21.77;12.32;
12542;PMS3003;6337;49.556;25.594;2023-01-28T16:51:52;25.77;12.43;
12542;PMS3003;6337;49.556;25.594;2023-01-28T16:54:29;17.08;11.10;
12542;PMS3003;6337;49.556;25.594;2023-01-28T16:59:56;24.35;13.05;
12542;PMS3003;6337;49.556;25.594;2023-01-28T17:02:24;21.45;11.60;
12542;PMS3003;6337;49.556;25.594;2023-01-28T17:04:52;29.08;13.63;
12542;PMS3003;6337;49.556;25.594;2023-01-28T17:07:21;24.55;14.43;
12542;PMS3003;6337;49.556;25.594;2023-01-28T17:09:51;23.52;12.85;
12542;PMS3003;6337;49.556;25.594;2023-01-28T17:12:19;20.20;11.73;
12542;PMS3003;6337;49.556;25.594;2023-01-28T17:14:54;23.55;12.45;
12542;PMS3003;6337;49.556;25.594;2023-01-28T17:17:25;25.73;12.27;
12542;PMS3003;6337;49.556;25.594;2023-01-28T17:19:53;26.25;15.10;
12542;PMS3003;6337;49.556;25.594;2023-01-28T17:22:23;25.98;11.07;
12542;PMS3003;6337;49.556;25.594;2023-01-28T17:24:52;20.75;12.35;
12542;PMS3003;6337;49.556;25.594;2023-01-28T17:27:20;23.33;13.52;
12542;PMS3003;6337;49.556;25.594;2023-01-28T17:29:47;16.88;10.75;
12542;PMS3003;6337;49.556;25.594;2023-01-28T17:32:15;16.50;9.95;
12542;PMS3003;6337;49.556;25.594;2023-01-28T17:37:29;23.65;11.32;
12542;PMS3003;6337;49.556;25.594;2023-01-28T17:39:57;18.33;12.57;
12542;PMS3003;6337;49.556;25.594;2023-01-28T17:42:41;21.75;10.88;
12542;PMS3003;6337;49.556;25.594;2023-01-28T17:45:22;23.30;11.60;
12542;PMS3003;6337;49.556;25.594;2023-01-28T17:48:12;23.27;12.02;
12542;PMS3003;6337;49.556;25.594;2023-01-28T17:50:42;17.40;11.35;
12542;PMS3003;6337;49.556;25.594;2023-01-28T17:53:13;19.30;11.25;
12542;PMS3003;6337;49.556;25.594;2023-01-28T17:55:41;22.17;11.63;
12542;PMS3003;6337;49.556;25.594;2023-01-28T17:58:09;16.80;10.93;
12542;PMS3003;6337;49.556;25.594;2023-01-28T18:00:51;25.83;12.27;
12542;PMS3003;6337;49.556;25.594;2023-01-28T18:03:19;24.67;13.73;
12542;PMS3003;6337;49.556;25.594;2023-01-28T18:05:55;17.48;11.75;
12542;PMS3003;6337;49.556;25.594;2023-01-28T18:08:27;23.20;12.00;
12542;PMS3003;6337;49.556;25.594;2023-01-28T18:10:54;25.92;12.48;
12542;PMS3003;6337;49.556;25.594;2023-01-28T18:13:25;20.95;11.27;
12542;PMS3003;6337;49.556;25.594;2023-01-28T18:15:54;20.02;12.38;
12542;PMS3003;6337;49.556;25.594;2023-01-28T18:18:35;21.15;12.13;
12542;PMS3003;6337;49.556;25.594;2023-01-28T18:21:04;24.90;11.60;
12542;PMS3003;6337;49.556;25.594;2023-01-28T18:23:35;20.70;12.05;
12542;PMS3003;6337;49.556;25.594;2023-01-28T18:26:04;20.83;11.73;
12542;PMS3003;6337;49.556;25.594;2023-01-28T18:28:31;20.35;12.20;
12542;PMS3003;6337;49.556;25.594;2023-01-28T18:31:03;29.67;13.35;
12542;PMS3003;6337;49.556;25.594;2023-01-28T18:33:31;32.08;14.05;
12542;PMS3003;6337;49.556;25.594;2023-01-28T18:36:12;22.90;12.55;
12542;PMS3003;6337;49.556;25.594;2023-01-28T18:38:42;21.38;12.50;
12542;PMS3003;6337;49.556;25.594;2023-01-28T18:41:15;23.27;10.90;
12542;PMS3003;6337;49.556;25.594;2023-01-28T18:43:43;20.85;11.50;
12542;PMS3003;6337;49.556;25.594;2023-01-28T18:46:13;25.60;13.23;
12542;PMS3003;6337;49.556;25.594;2023-01-28T18:48:45;25.10;12.05;
12542;PMS3003;6337;49.556;25.594;2023-01-28T18:51:13;19.95;12.27;
12542;PMS3003;6337;49.556;25.594;2023-01-28T18:53:46;23.40;12.85;
12542;PMS3003;6337;49.556;25.594;2023-01-28T18:56:17;17.25;12.43;
12542;PMS3003;6337;49.556;25.594;2023-01-28T18:58:46;22.95;12.18;
12542;PMS3003;6337;49.556;25.594;2023-01-28T19:01:13;21.90;13.15;
12542;PMS3003;6337;49.556;25.594;2023-01-28T19:03:42;17.60;12.65;
12542;PMS3003;6337;49.556;25.594;2023-01-28T19:06:10;24.27;12.32;
12542;PMS3003;6337;49.556;25.594;2023-01-28T19:08:42;19.80;12.60;
12542;PMS3003;6337;49.556;25.594;2023-01-28T19:11:10;38.63;14.43;
12542;PMS3003;6337;49.556;25.594;2023-01-28T19:13:38;23.90;13.65;
12542;PMS3003;6337;49.556;25.594;2023-01-28T19:16:06;24.92;13.32;
12542;PMS3003;6337;49.556;25.594;2023-01-28T19:18:34;28.20;14.85;
12542;PMS3003;6337;49.556;25.594;2023-01-28T19:21:04;22.13;13.55;
12542;PMS3003;6337;49.556;25.594;2023-01-28T19:23:35;29.27;15.18;
12542;PMS3003;6337;49.556;25.594;2023-01-28T19:26:05;31.48;15.43;
12542;PMS3003;6337;49.556;25.594;2023-01-28T19:28:34;23.98;14.68;
12542;PMS3003;6337;49.556;25.594;2023-01-28T19:31:08;22.73;13.27;
12542;PMS3003;6337;49.556;25.594;2023-01-28T19:33:35;23.73;12.40;
